Time;durP1;ratioP1;P1;durP2;ratioP2;P2;SDS_P1;SDS_P2;PMS_P1;PMS_P2;Temp;Humidity;BMP_temperature;BMP_pressure;BME280_temperature;BME280_humidity;BME280_pressure;Samples;Min_cycle;Max_cycle;Signal;HPM_P1;HPM_P2
2023/12/27 00:01:25;;;;;;;5.05;3.33;;;6.10;99.90;;;;;;5090842;28;20020;-51
2023/12/27 00:03:50;;;;;;;6.18;3.58;;;6.00;99.90;;;;;;5107757;28;20032;-51
2023/12/27 00:06:16;;;;;;;4.97;3.25;;;6.10;99.90;;;;;;5109074;28;20042;-50
2023/12/27 00:08:41;;;;;;;6.97;3.22;;;6.00;99.90;;;;;;5108890;28;20099;-51
2023/12/27 00:11:07;;;;;;;5.90;3.58;;;6.10;99.90;;;;;;5108998;28;20028;-51
2023/12/27 00:13:32;;;;;;;4.55;3.20;;;6.00;99.90;;;;;;5108749;28;20032;-51
2023/12/27 00:15:58;;;;;;;5.30;3.38;;;6.00;99.90;;;;;;5090627;28;20028;-50
2023/12/27 00:18:23;;;;;;;7.93;3.75;;;6.00;99.90;;;;;;5108591;28;20032;-51
2023/12/27 00:20:49;;;;;;;6.45;3.13;;;6.00;99.90;;;;;;5109759;28;20091;-51
2023/12/27 00:23:15;;;;;;;4.70;3.33;;;6.00;99.90;;;;;;5074721;28;20027;-51
2023/12/27 00:25:40;;;;;;;6.10;3.45;;;6.00;99.90;;;;;;5108930;28;20051;-51
2023/12/27 00:28:06;;;;;;;5.57;3.22;;;6.00;99.90;;;;;;5090568;28;20020;-51
2023/12/27 00:30:32;;;;;;;4.80;3.30;;;6.00;99.90;;;;;;5090541;28;20031;-51
2023/12/27 00:32:57;;;;;;;3.92;3.00;;;6.00;99.90;;;;;;5108599;28;20024;-51
2023/12/27 00:35:23;;;;;;;6.25;3.55;;;6.00;99.90;;;;;;5108228;28;20175;-51
2023/12/27 00:37:48;;;;;;;5.80;3.20;;;6.00;99.90;;;;;;5090075;28;20027;-50
2023/12/27 00:40:14;;;;;;;4.38;2.90;;;6.00;99.90;;;;;;5108174;28;20044;-51
2023/12/27 00:42:40;;;;;;;4.80;3.63;;;6.00;99.90;;;;;;5073855;28;20016;-50
2023/12/27 00:45:06;;;;;;;5.13;3.53;;;6.00;99.90;;;;;;5108452;28;20083;-51
2023/12/27 00:47:31;;;;;;;4.65;2.88;;;6.00;99.90;;;;;;5108329;28;20031;-51
2023/12/27 00:49:57;;;;;;;6.78;3.30;;;6.00;99.90;;;;;;5088990;28;20028;-51
2023/12/27 00:52:23;;;;;;;6.03;3.45;;;5.90;99.90;;;;;;5106991;28;20476;-50
2023/12/27 00:54:48;;;;;;;7.75;3.70;;;5.90;99.90;;;;;;5108251;28;20042;-51
2023/12/27 00:57:14;;;;;;;5.93;3.33;;;5.90;99.90;;;;;;5108124;28;20032;-50
2023/12/27 00:59:39;;;;;;;6.22;3.67;;;5.90;99.90;;;;;;5107940;28;20039;-50
2023/12/27 01:02:06;;;;;;;5.68;3.63;;;5.90;99.90;;;;;;5089962;28;20024;-51
2023/12/27 01:04:32;;;;;;;5.75;3.22;;;5.90;99.90;;;;;;5106578;28;20460;-50
2023/12/27 01:06:58;;;;;;;5.32;3.33;;;5.90;99.90;;;;;;5106662;28;20024;-51
2023/12/27 01:09:24;;;;;;;5.63;3.22;;;5.90;99.90;;;;;;5107853;28;20052;-51
2023/12/27 01:11:49;;;;;;;5.43;3.08;;;5.90;99.90;;;;;;5089791;28;20506;-51
2023/12/27 01:14:16;;;;;;;5.45;3.17;;;5.90;99.90;;;;;;5089631;28;20032;-51
2023/12/27 01:16:42;;;;;;;4.53;3.05;;;5.90;99.90;;;;;;5107854;28;20042;-51
2023/12/27 01:19:09;;;;;;;5.32;3.17;;;5.90;99.90;;;;;;5072619;28;20059;-51
2023/12/27 01:21:35;;;;;;;5.10;3.33;;;5.90;99.90;;;;;;5089466;28;20016;-51
2023/12/27 01:24:00;;;;;;;4.32;2.60;;;5.90;99.90;;;;;;5107622;28;20060;-51
2023/12/27 01:26:26;;;;;;;5.63;3.17;;;5.90;99.90;;;;;;5107492;28;20479;-51
2023/12/27 01:28:51;;;;;;;6.82;3.33;;;5.90;99.90;;;;;;5107147;28;20029;-51
2023/12/27 01:31:17;;;;;;;5.55;3.00;;;5.90;99.90;;;;;;5108087;28;20044;-50
2023/12/27 01:33:42;;;;;;;5.38;3.35;;;5.90;99.90;;;;;;5088802;28;20387;-51
2023/12/27 01:36:08;;;;;;;4.75;2.97;;;5.80;99.90;;;;;;5089193;28;20043;-51
2023/12/27 01:38:34;;;;;;;5.30;3.25;;;5.80;99.90;;;;;;5107024;28;20098;-51
2023/12/27 01:41:00;;;;;;;4.97;2.80;;;5.80;99.90;;;;;;5107107;28;20083;-51
2023/12/27 01:43:25;;;;;;;7.28;3.30;;;5.80;99.90;;;;;;5088958;28;20012;-51
2023/12/27 01:45:51;;;;;;;5.57;3.22;;;5.80;99.90;;;;;;5088966;28;20024;-51
2023/12/27 01:48:20;;;;;;;4.43;3.33;;;5.80;99.90;;;;;;5107151;28;20024;-50
2023/12/27 01:50:46;;;;;;;5.47;3.03;;;5.80;99.90;;;;;;5105983;28;20107;-50
2023/12/27 01:53:12;;;;;;;4.93;3.45;;;5.80;99.90;;;;;;5105826;28;20101;-51
2023/12/27 01:55:37;;;;;;;5.28;3.22;;;5.80;99.90;;;;;;5107032;28;20036;-51
2023/12/27 01:58:08;;;;;;;5.75;3.25;;;5.80;99.90;;;;;;5088889;28;20032;-51
2023/12/27 02:00:37;;;;;;;4.43;2.75;;;5.80;99.90;;;;;;5072268;28;20016;-51
2023/12/27 02:03:03;;;;;;;6.75;3.38;;;5.80;99.90;;;;;;5089255;28;20028;-50
2023/12/27 02:05:28;;;;;;;4.70;2.85;;;5.80;99.90;;;;;;5088802;28;20387;-51
2023/12/27 02:07:54;;;;;;;5.68;3.30;;;5.80;99.90;;;;;;5088933;28;20024;-51
2023/12/27 02:10:20;;;;;;;5.00;2.90;;;5.80;99.90;;;;;;5088742;28;20024;-51
2023/12/27 02:12:45;;;;;;;4.75;3.05;;;5.80;99.90;;;;;;5088546;28;20031;-50
2023/12/27 02:15:11;;;;;;;5.40;3.17;;;5.70;99.90;;;;;;5088605;28;20083;-51
2023/12/27 02:17:36;;;;;;;5.88;3.45;;;5.70;99.90;;;;;;5089049;28;20095;-51
2023/12/27 02:20:03;;;;;;;5.57;2.92;;;5.70;99.90;;;;;;5088580;28;20111;-51
2023/12/27 02:22:28;;;;;;;5.20;2.97;;;5.70;99.90;;;;;;5105416;28;20035;-51
2023/12/27 02:24:54;;;;;;;5.03;2.85;;;5.70;99.90;;;;;;5105300;28;20028;-50
2023/12/27 02:27:20;;;;;;;5.32;3.40;;;5.70;99.90;;;;;;5088354;28;20081;-51
2023/12/27 02:29:46;;;;;;;5.10;2.83;;;5.70;99.90;;;;;;5089213;28;20032;-51
2023/12/27 02:32:11;;;;;;;4.43;2.85;;;5.70;99.90;;;;;;5088581;28;20507;-51
2023/12/27 02:34:37;;;;;;;4.97;3.25;;;5.70;99.90;;;;;;5088221;28;20028;-59
2023/12/27 02:37:03;;;;;;;5.22;3.35;;;5.70;99.90;;;;;;5088250;28;20028;-58
2023/12/27 02:39:28;;;;;;;6.75;3.53;;;5.70;99.90;;;;;;5088189;28;20043;-58
2023/12/27 02:41:54;;;;;;;4.60;3.17;;;5.70;99.90;;;;;;5088188;28;20020;-58
2023/12/27 02:44:19;;;;;;;4.15;3.20;;;5.70;99.90;;;;;;5088122;28;20472;-58
2023/12/27 02:46:45;;;;;;;4.10;2.60;;;5.70;99.90;;;;;;5106160;28;20080;-58
2023/12/27 02:49:10;;;;;;;4.47;2.90;;;5.70;99.90;;;;;;5106328;28;20082;-58
2023/12/27 02:51:36;;;;;;;6.35;3.20;;;5.70;99.90;;;;;;5088261;28;20372;-59
2023/12/27 02:54:02;;;;;;;4.75;2.90;;;5.70;99.90;;;;;;5106337;28;20085;-58
2023/12/27 02:56:27;;;;;;;6.13;2.88;;;5.70;99.90;;;;;;5088269;28;20024;-58
2023/12/27 02:58:53;;;;;;;4.22;3.00;;;5.60;99.90;;;;;;5088029;28;20102;-58
2023/12/27 03:01:18;;;;;;;4.78;3.33;;;5.70;99.90;;;;;;5087951;28;20054;-58
2023/12/27 03:03:44;;;;;;;3.55;3.03;;;5.60;99.90;;;;;;5106129;28;20092;-58
2023/12/27 03:06:09;;;;;;;4.90;3.05;;;5.60;99.90;;;;;;5088779;28;20017;-58
2023/12/27 03:08:37;;;;;;;6.10;2.80;;;5.60;99.90;;;;;;5088052;28;20464;-58
2023/12/27 03:11:02;;;;;;;4.45;3.08;;;5.70;99.90;;;;;;5106019;28;20051;-58
2023/12/27 03:13:28;;;;;;;3.65;2.45;;;5.60;99.90;;;;;;5091298;28;20434;-57
2023/12/27 03:15:54;;;;;;;3.97;2.70;;;5.60;99.90;;;;;;5091952;28;20023;-58
2023/12/27 03:18:19;;;;;;;5.45;2.90;;;5.60;99.90;;;;;;5091614;28;20047;-58
2023/12/27 03:20:45;;;;;;;6.07;3.33;;;5.60;99.90;;;;;;5091714;28;20028;-58
2023/12/27 03:23:10;;;;;;;4.68;2.90;;;5.60;99.90;;;;;;5091620;28;20024;-58
2023/12/27 03:25:36;;;;;;;5.32;2.80;;;5.60;99.90;;;;;;5091704;28;20028;-58
2023/12/27 03:28:01;;;;;;;5.00;2.85;;;5.60;99.90;;;;;;5091733;28;20048;-58
2023/12/27 03:30:27;;;;;;;5.22;3.22;;;5.60;99.90;;;;;;5110070;28;20042;-58
2023/12/27 03:32:53;;;;;;;6.78;3.17;;;5.60;99.90;;;;;;5109744;28;20026;-58
2023/12/27 03:35:18;;;;;;;3.95;2.80;;;5.60;99.90;;;;;;5091149;28;20466;-59
2023/12/27 03:37:45;;;;;;;3.45;2.72;;;5.60;99.90;;;;;;5091361;28;20061;-58
2023/12/27 03:40:11;;;;;;;4.53;2.90;;;5.60;99.90;;;;;;5109523;28;20032;-58
2023/12/27 03:42:36;;;;;;;5.40;3.10;;;5.50;99.90;;;;;;5091413;28;20020;-58
2023/12/27 03:45:02;;;;;;;6.63;3.30;;;5.60;99.90;;;;;;5108335;28;20028;-59
2023/12/27 03:47:27;;;;;;;3.72;2.88;;;5.50;99.90;;;;;;5109674;28;20541;-59
2023/12/27 03:49:53;;;;;;;3.55;2.75;;;5.50;99.90;;;;;;5109579;28;20028;-59
2023/12/27 03:52:19;;;;;;;4.70;2.92;;;5.50;99.90;;;;;;5091257;28;20024;-58
2023/12/27 03:54:45;;;;;;;4.03;2.92;;;5.50;99.90;;;;;;5109360;28;20036;-58
2023/12/27 03:57:11;;;;;;;8.48;3.15;;;5.50;99.90;;;;;;5107941;28;20024;-58
2023/12/27 03:59:37;;;;;;;5.03;3.10;;;5.50;99.90;;;;;;5091210;28;20042;-58
2023/12/27 04:02:03;;;;;;;5.10;2.78;;;5.50;99.90;;;;;;5090937;28;20034;-58
2023/12/27 04:04:29;;;;;;;5.45;3.10;;;5.50;99.90;;;;;;5091005;28;20050;-58
2023/12/27 04:06:55;;;;;;;3.40;2.55;;;5.50;99.90;;;;;;5090845;28;20024;-59
2023/12/27 04:09:20;;;;;;;3.78;3.10;;;5.50;99.90;;;;;;5090647;28;20036;-58
2023/12/27 04:11:46;;;;;;;4.72;2.67;;;5.50;99.90;;;;;;5091749;28;20040;-59
2023/12/27 04:14:15;;;;;;;6.80;2.90;;;5.50;99.90;;;;;;5109441;28;20036;-58
2023/12/27 04:16:41;;;;;;;5.07;2.90;;;5.50;99.90;;;;;;5090902;28;20030;-58
2023/12/27 04:19:07;;;;;;;5.72;3.25;;;5.50;99.90;;;;;;5090553;28;20068;-58
2023/12/27 04:21:32;;;;;;;5.78;2.75;;;5.50;99.90;;;;;;5090656;28;20084;-58
2023/12/27 04:23:58;;;;;;;4.13;2.80;;;5.50;99.90;;;;;;5107248;28;20024;-59
2023/12/27 04:26:23;;;;;;;4.43;2.90;;;5.50;99.90;;;;;;5090641;28;20016;-58
2023/12/27 04:28:49;;;;;;;4.35;3.10;;;5.50;99.90;;;;;;5073623;28;20057;-58
2023/12/27 04:31:14;;;;;;;5.45;3.10;;;5.50;99.90;;;;;;5108663;28;20103;-58
2023/12/27 04:33:40;;;;;;;5.20;3.15;;;5.40;99.90;;;;;;5106923;28;20028;-57
2023/12/27 04:36:06;;;;;;;4.15;2.67;;;5.40;99.90;;;;;;5108632;28;20032;-58
2023/12/27 04:38:31;;;;;;;3.45;2.53;;;5.40;99.90;;;;;;5108269;28;20043;-58
2023/12/27 04:40:57;;;;;;;7.00;3.03;;;5.50;99.90;;;;;;5108489;28;20026;-59
2023/12/27 04:43:23;;;;;;;4.68;2.80;;;5.40;99.90;;;;;;5108263;28;20080;-58
2023/12/27 04:45:49;;;;;;;6.10;2.83;;;5.40;99.90;;;;;;5108495;28;20032;-58
2023/12/27 04:48:15;;;;;;;4.72;2.85;;;5.40;99.90;;;;;;5108296;28;20109;-58
2023/12/27 04:50:40;;;;;;;4.07;2.72;;;5.40;99.90;;;;;;5073271;28;20028;-58
2023/12/27 04:53:06;;;;;;;6.25;2.97;;;5.40;99.90;;;;;;5108149;28;20107;-59
2023/12/27 04:55:32;;;;;;;3.80;2.50;;;5.40;99.90;;;;;;5108225;28;20020;-59
2023/12/27 04:57:57;;;;;;;6.40;2.83;;;5.40;99.90;;;;;;5090041;28;20032;-59
2023/12/27 05:00:23;;;;;;;3.83;2.78;;;5.40;99.90;;;;;;5089798;28;20035;-59
2023/12/27 05:02:49;;;;;;;4.72;2.92;;;5.40;99.90;;;;;;5089965;28;20056;-58
2023/12/27 05:05:14;;;;;;;4.45;2.97;;;5.40;99.90;;;;;;5108038;28;20084;-58
2023/12/27 05:07:41;;;;;;;4.22;2.95;;;5.40;99.90;;;;;;5107918;28;20152;-58
2023/12/27 05:10:07;;;;;;;3.90;2.90;;;5.40;99.90;;;;;;5089728;28;20169;-58
2023/12/27 05:12:32;;;;;;;5.50;3.15;;;5.40;99.90;;;;;;5107763;28;20024;-58
2023/12/27 05:14:58;;;;;;;4.13;2.67;;;5.40;99.90;;;;;;5089493;28;20039;-58
2023/12/27 05:17:23;;;;;;;4.35;2.90;;;5.40;99.90;;;;;;5107722;28;20383;-59
2023/12/27 05:19:49;;;;;;;4.50;2.85;;;5.40;99.90;;;;;;5089332;28;20062;-58
2023/12/27 05:22:16;;;;;;;4.20;2.70;;;5.30;99.90;;;;;;5089475;28;20024;-59
2023/12/27 05:24:42;;;;;;;4.70;2.70;;;5.40;99.90;;;;;;5106429;28;20078;-58
2023/12/27 05:27:08;;;;;;;3.58;2.80;;;5.30;99.90;;;;;;5107378;28;20036;-59
2023/12/27 05:29:34;;;;;;;3.88;3.00;;;5.30;99.90;;;;;;5107568;28;20035;-58
2023/12/27 05:32:00;;;;;;;3.70;2.40;;;5.30;99.90;;;;;;5107350;28;20088;-59
2023/12/27 05:34:27;;;;;;;5.05;2.95;;;5.30;99.90;;;;;;5106663;28;20038;-58
2023/12/27 05:36:52;;;;;;;4.25;3.03;;;5.30;99.90;;;;;;5089315;28;20016;-58
2023/12/27 05:39:18;;;;;;;5.43;2.92;;;5.30;99.90;;;;;;5089113;28;20051;-58
2023/12/27 05:41:44;;;;;;;4.00;2.65;;;5.30;99.90;;;;;;5072343;28;20117;-59
2023/12/27 05:44:09;;;;;;;3.63;2.50;;;5.30;99.90;;;;;;5107179;28;20087;-58
2023/12/27 05:46:35;;;;;;;3.30;2.30;;;5.30;99.90;;;;;;5089067;28;20452;-58
2023/12/27 05:49:01;;;;;;;4.97;2.95;;;5.30;99.90;;;;;;5107042;28;20039;-58
2023/12/27 05:51:27;;;;;;;4.88;2.70;;;5.30;99.90;;;;;;5105948;28;20028;-58
2023/12/27 05:53:53;;;;;;;3.97;2.75;;;5.30;99.90;;;;;;5088911;28;20036;-58
2023/12/27 05:56:18;;;;;;;5.15;2.70;;;5.30;99.90;;;;;;5107036;28;20028;-58
2023/12/27 05:58:44;;;;;;;4.05;2.50;;;5.30;99.90;;;;;;5105616;28;20063;-58
2023/12/27 06:01:09;;;;;;;4.25;2.70;;;5.20;99.90;;;;;;5088663;28;20020;-58
2023/12/27 06:03:35;;;;;;;4.13;2.70;;;5.30;99.90;;;;;;5088647;28;20345;-59
2023/12/27 06:06:04;;;;;;;5.45;2.65;;;5.30;99.90;;;;;;5106941;28;20016;-58
2023/12/27 06:08:29;;;;;;;3.63;2.58;;;5.30;99.90;;;;;;5088785;28;20024;-57
2023/12/27 06:10:55;;;;;;;4.57;2.85;;;5.20;99.90;;;;;;5088699;28;20032;-58
2023/12/27 06:13:21;;;;;;;4.95;2.78;;;5.20;99.90;;;;;;5088632;28;20028;-58
2023/12/27 06:15:46;;;;;;;5.38;3.30;;;5.20;99.90;;;;;;5106909;28;20059;-58
2023/12/27 06:18:12;;;;;;;4.88;2.58;;;5.20;99.90;;;;;;5088340;28;20020;-58
2023/12/27 06:20:37;;;;;;;3.92;2.53;;;5.20;99.90;;;;;;5088432;28;20031;-59
2023/12/27 06:23:03;;;;;;;6.65;3.13;;;5.20;99.90;;;;;;5105166;28;20024;-58
2023/12/27 06:25:29;;;;;;;4.32;2.50;;;5.20;99.90;;;;;;5106674;28;20028;-58
2023/12/27 06:27:55;;;;;;;4.55;2.65;;;5.20;99.90;;;;;;5106439;28;20487;-59
2023/12/27 06:30:20;;;;;;;3.85;2.60;;;5.20;99.90;;;;;;5106629;28;20032;-58
2023/12/27 06:32:46;;;;;;;4.43;2.63;;;5.20;99.90;;;;;;5106466;28;20025;-58
2023/12/27 06:35:11;;;;;;;4.45;2.47;;;5.20;99.90;;;;;;5106225;28;20042;-59
2023/12/27 06:37:37;;;;;;;3.45;2.65;;;5.20;99.90;;;;;;5088357;28;20028;-59
2023/12/27 06:40:03;;;;;;;4.60;2.60;;;5.20;99.90;;;;;;5087968;28;20032;-58
2023/12/27 06:42:28;;;;;;;3.60;2.60;;;5.10;99.90;;;;;;5088472;28;20044;-56
2023/12/27 06:44:54;;;;;;;6.72;3.00;;;5.20;99.90;;;;;;5105070;28;20020;-50
2023/12/27 06:47:20;;;;;;;6.47;2.72;;;5.20;99.90;;;;;;5089688;28;20031;-50
2023/12/27 06:49:47;;;;;;;6.25;3.38;;;5.20;99.90;;;;;;5092179;28;20044;-51
2023/12/27 06:52:13;;;;;;;4.57;2.50;;;5.10;99.90;;;;;;5091812;28;20055;-50
2023/12/27 06:54:38;;;;;;;4.18;2.63;;;5.10;99.90;;;;;;5108887;28;20035;-51
2023/12/27 06:57:04;;;;;;;5.53;2.67;;;5.10;99.90;;;;;;5092712;28;20043;-51
2023/12/27 06:59:29;;;;;;;4.57;2.72;;;5.10;99.90;;;;;;5109929;28;20028;-51
2023/12/27 07:01:55;;;;;;;5.03;2.70;;;5.20;99.90;;;;;;5110632;28;20036;-50
2023/12/27 07:04:21;;;;;;;3.80;2.72;;;5.10;99.90;;;;;;5091983;28;20024;-50
2023/12/27 07:06:46;;;;;;;5.05;2.80;;;5.10;99.90;;;;;;5110174;28;20052;-51
2023/12/27 07:09:12;;;;;;;4.78;2.90;;;5.10;99.90;;;;;;5091820;28;20032;-51
2023/12/27 07:11:38;;;;;;;5.78;3.35;;;5.10;99.90;;;;;;5089746;28;20043;-51
2023/12/27 07:14:04;;;;;;;3.65;2.78;;;5.10;99.90;;;;;;5089829;28;20039;-50
2023/12/27 07:16:29;;;;;;;5.88;2.72;;;5.00;99.90;;;;;;5089645;28;20085;-51
2023/12/27 07:18:55;;;;;;;4.22;2.97;;;5.10;99.90;;;;;;5107555;28;20095;-51
2023/12/27 07:21:20;;;;;;;5.45;3.00;;;5.00;99.90;;;;;;5107545;28;20028;-51
2023/12/27 07:23:46;;;;;;;4.53;2.95;;;5.10;99.90;;;;;;5072724;28;20019;-51
2023/12/27 07:26:12;;;;;;;4.45;2.90;;;5.10;99.90;;;;;;5108986;28;20032;-51
2023/12/27 07:28:39;;;;;;;4.68;2.95;;;5.00;99.90;;;;;;5091737;28;20028;-50
2023/12/27 07:31:05;;;;;;;3.78;2.63;;;5.00;99.90;;;;;;5091729;28;20032;-51
2023/12/27 07:33:31;;;;;;;5.30;2.80;;;5.00;99.90;;;;;;5091718;28;20379;-51
2023/12/27 07:35:56;;;;;;;4.25;2.55;;;5.00;99.90;;;;;;5110349;28;20058;-50
2023/12/27 07:38:24;;;;;;;4.65;2.95;;;5.00;99.90;;;;;;5118708;28;20028;-51
2023/12/27 07:40:50;;;;;;;4.38;2.85;;;5.00;99.90;;;;;;5110996;28;20069;-51
2023/12/27 07:43:15;;;;;;;4.80;3.03;;;5.00;99.90;;;;;;5111594;28;20024;-50
2023/12/27 07:45:43;;;;;;;4.97;2.88;;;5.00;99.90;;;;;;5099725;28;20027;-51
2023/12/27 07:48:09;;;;;;;4.15;3.10;;;5.00;99.90;;;;;;5124405;28;20027;-50
2023/12/27 07:50:36;;;;;;;6.10;3.03;;;5.00;99.90;;;;;;5119433;28;20024;-51
2023/12/27 07:53:02;;;;;;;4.80;3.05;;;5.00;99.90;;;;;;5129571;28;20058;-51
2023/12/27 07:55:28;;;;;;;6.07;3.10;;;4.90;99.90;;;;;;5129609;28;20027;-51
2023/12/27 07:57:54;;;;;;;4.78;2.88;;;4.90;99.90;;;;;;5108790;28;20021;-51
2023/12/27 08:00:19;;;;;;;5.03;3.03;;;5.00;99.90;;;;;;5103339;28;20044;-50
2023/12/27 08:02:45;;;;;;;3.97;3.00;;;5.00;99.90;;;;;;5109254;28;20035;-51
2023/12/27 08:05:11;;;;;;;6.38;2.72;;;5.00;99.90;;;;;;5109000;28;20016;-51
2023/12/27 08:07:38;;;;;;;3.33;2.92;;;4.90;99.90;;;;;;5120556;27;20031;-51
2023/12/27 08:10:04;;;;;;;5.10;3.28;;;5.00;99.90;;;;;;5089435;28;20029;-51
2023/12/27 08:12:30;;;;;;;5.78;3.15;;;5.00;99.90;;;;;;5144147;27;20498;-50
2023/12/27 08:14:56;;;;;;;4.13;3.17;;;5.00;99.90;;;;;;5123439;28;20549;-50
2023/12/27 08:17:22;;;;;;;4.88;3.47;;;4.90;99.90;;;;;;5106463;28;20036;-51
2023/12/27 08:19:47;;;;;;;5.18;3.25;;;4.90;99.90;;;;;;5110613;28;20082;-51
2023/12/27 08:22:13;;;;;;;5.13;3.22;;;5.00;99.90;;;;;;5129271;28;20058;-51
2023/12/27 08:24:39;;;;;;;4.10;3.08;;;4.90;99.90;;;;;;5106119;28;20031;-50
2023/12/27 08:27:04;;;;;;;4.28;3.10;;;4.90;99.90;;;;;;5110860;28;20028;-51
2023/12/27 08:29:30;;;;;;;4.22;3.28;;;4.90;99.90;;;;;;5125327;28;20145;-51
2023/12/27 08:31:55;;;;;;;4.07;3.25;;;5.00;99.90;;;;;;5119586;28;20032;-51
2023/12/27 08:34:22;;;;;;;4.10;3.17;;;4.90;99.90;;;;;;5110488;28;20028;-51
2023/12/27 08:36:48;;;;;;;5.57;3.30;;;4.90;99.90;;;;;;5107291;28;20504;-50
2023/12/27 08:39:14;;;;;;;4.82;3.47;;;4.90;99.90;;;;;;5112262;28;20032;-50
2023/12/27 08:41:41;;;;;;;5.80;3.20;;;5.00;99.90;;;;;;5123224;28;20035;-51
2023/12/27 08:44:07;;;;;;;5.18;3.35;;;5.00;99.90;;;;;;5127429;28;20012;-51
2023/12/27 08:46:33;;;;;;;5.80;3.80;;;4.90;99.90;;;;;;5106856;28;20050;-51
2023/12/27 08:48:59;;;;;;;5.82;3.53;;;5.00;99.90;;;;;;5095910;28;20024;-51
2023/12/27 08:51:24;;;;;;;5.00;3.45;;;5.00;99.90;;;;;;5121915;28;20028;-51
2023/12/27 08:53:50;;;;;;;6.18;3.42;;;5.00;99.90;;;;;;5123833;28;20032;-51
2023/12/27 08:56:15;;;;;;;9.20;4.43;;;5.00;99.90;;;;;;5108660;28;20054;-51
2023/12/27 08:58:41;;;;;;;4.57;3.28;;;5.00;99.90;;;;;;5119682;28;20024;-51
2023/12/27 09:01:07;;;;;;;5.20;3.40;;;5.00;99.90;;;;;;5112515;28;20087;-50
2023/12/27 09:03:33;;;;;;;5.47;3.70;;;5.00;99.90;;;;;;5106903;28;20024;-51
2023/12/27 09:05:58;;;;;;;8.93;3.85;;;5.00;99.90;;;;;;5107528;28;20034;-51
2023/12/27 09:08:24;;;;;;;7.38;3.90;;;5.00;99.90;;;;;;5091340;28;20107;-51
2023/12/27 09:10:50;;;;;;;5.28;3.60;;;5.00;99.90;;;;;;5108918;28;20031;-51
2023/12/27 09:13:16;;;;;;;6.25;3.80;;;5.00;99.90;;;;;;5109904;28;20019;-51
2023/12/27 09:15:41;;;;;;;8.60;3.80;;;5.00;99.90;;;;;;5109971;28;20068;-51
2023/12/27 09:18:08;;;;;;;7.18;4.28;;;5.10;99.90;;;;;;5089221;28;20058;-51
2023/12/27 09:20:34;;;;;;;7.47;4.32;;;5.00;99.90;;;;;;5107474;28;20028;-51
2023/12/27 09:23:00;;;;;;;10.88;4.20;;;5.10;99.90;;;;;;5118946;28;20384;-51
2023/12/27 09:25:26;;;;;;;9.32;4.05;;;5.10;99.90;;;;;;5098885;28;20083;-51
2023/12/27 09:27:51;;;;;;;10.10;4.68;;;5.20;99.90;;;;;;5124844;28;20031;-51
2023/12/27 09:30:17;;;;;;;16.30;4.43;;;5.10;99.90;;;;;;5127719;28;20031;-51
2023/12/27 09:32:43;;;;;;;17.33;5.97;;;5.10;99.90;;;;;;5109549;28;20031;-51
2023/12/27 09:35:08;;;;;;;32.40;6.05;;;5.10;99.90;;;;;;5097878;28;20434;-51
2023/12/27 09:37:35;;;;;;;19.75;5.38;;;5.10;99.90;;;;;;5106856;28;20051;-51
2023/12/27 09:40:01;;;;;;;18.42;6.07;;;5.20;99.90;;;;;;5088784;28;20040;-51
2023/12/27 09:42:27;;;;;;;24.98;6.63;;;5.20;99.90;;;;;;5099221;28;20030;-51
2023/12/27 09:44:53;;;;;;;24.88;6.20;;;5.20;99.90;;;;;;5102820;28;20020;-51
2023/12/27 09:47:18;;;;;;;27.73;6.18;;;5.20;99.90;;;;;;5107161;28;20035;-51
2023/12/27 09:49:44;;;;;;;29.00;6.80;;;5.20;99.90;;;;;;5108890;28;20027;-50
2023/12/27 09:52:10;;;;;;;35.45;6.82;;;5.20;99.90;;;;;;5101272;28;20035;-51
2023/12/27 09:54:35;;;;;;;30.77;6.55;;;5.20;99.90;;;;;;5096280;28;20032;-51
2023/12/27 09:57:02;;;;;;;60.40;8.48;;;5.30;99.90;;;;;;5138446;27;20108;-51
2023/12/27 09:59:28;;;;;;;36.03;7.68;;;5.20;99.90;;;;;;5102781;28;20024;-50
2023/12/27 10:01:59;;;;;;;64.45;8.98;;;5.30;99.90;;;;;;5109890;28;20031;-51
2023/12/27 10:04:46;;;;;;;60.90;8.90;;;5.30;99.90;;;;;;5099887;28;20024;-51
2023/12/27 10:07:12;;;;;;;51.30;8.07;;;5.30;99.90;;;;;;5136154;27;20115;-51
2023/12/27 10:09:38;;;;;;;75.28;10.48;;;5.30;99.90;;;;;;5107703;28;20211;-51
2023/12/27 10:12:05;;;;;;;65.25;10.32;;;5.30;99.90;;;;;;5103415;28;20546;-50
2023/12/27 10:14:31;;;;;;;87.40;12.63;;;5.40;99.90;;;;;;5087729;28;20044;-50
2023/12/27 10:16:57;;;;;;;79.43;13.55;;;5.40;99.90;;;;;;5088291;28;20032;-51
2023/12/27 10:19:42;;;;;;;98.55;14.70;;;5.40;99.90;;;;;;5112460;28;20432;-51
2023/12/27 10:22:08;;;;;;;85.95;11.88;;;5.40;99.90;;;;;;5117271;28;20028;-51
2023/12/27 10:24:34;;;;;;;99.72;13.60;;;5.40;99.90;;;;;;5118178;28;20129;-51
2023/12/27 10:27:04;;;;;;;93.30;14.73;;;5.40;99.90;;;;;;5085943;28;20374;-51
2023/12/27 10:29:31;;;;;;;126.32;14.90;;;5.50;99.90;;;;;;5103825;28;20122;-51
2023/12/27 10:32:03;;;;;;;95.22;13.55;;;5.40;99.90;;;;;;5104028;28;20054;-51
2023/12/27 10:34:29;;;;;;;120.13;15.98;;;5.50;99.90;;;;;;5093544;28;20056;-51
2023/12/27 10:36:55;;;;;;;123.10;14.25;;;5.50;99.90;;;;;;5106307;28;20024;-51
2023/12/27 10:39:21;;;;;;;124.82;17.30;;;5.50;99.90;;;;;;5106944;28;20028;-50
2023/12/27 10:41:47;;;;;;;120.22;17.00;;;5.50;99.90;;;;;;5099817;28;20088;-50
2023/12/27 10:44:17;;;;;;;126.75;16.27;;;5.50;99.90;;;;;;5105911;28;20028;-50
2023/12/27 10:46:43;;;;;;;114.13;17.48;;;5.60;99.90;;;;;;5099501;28;20039;-51
2023/12/27 10:49:08;;;;;;;155.02;17.95;;;5.60;99.90;;;;;;5103375;28;20036;-51
2023/12/27 10:51:38;;;;;;;136.80;18.67;;;5.50;99.90;;;;;;5104134;28;20035;-51
2023/12/27 10:54:04;;;;;;;123.18;19.80;;;5.60;99.90;;;;;;5097013;28;20024;-51
2023/12/27 10:56:34;;;;;;;150.32;17.90;;;5.60;99.90;;;;;;5115073;28;20043;-51
2023/12/27 10:58:59;;;;;;;125.55;17.42;;;5.60;99.90;;;;;;5095186;28;20029;-51
2023/12/27 11:01:25;;;;;;;124.32;17.95;;;5.60;99.90;;;;;;5106116;28;20044;-51
2023/12/27 11:03:51;;;;;;;97.40;15.75;;;5.60;99.90;;;;;;5101462;28;20044;-51
2023/12/27 11:06:20;;;;;;;128.60;18.67;;;5.60;99.90;;;;;;5102085;28;20491;-51
2023/12/27 11:08:45;;;;;;;145.13;18.90;;;5.60;99.90;;;;;;5117617;28;20083;-51
2023/12/27 11:11:13;;;;;;;138.95;20.10;;;5.70;99.90;;;;;;5087187;28;20124;-51
2023/12/27 11:13:39;;;;;;;124.85;18.63;;;5.70;99.90;;;;;;5080923;28;20092;-51
2023/12/27 11:16:05;;;;;;;150.90;20.52;;;5.70;99.90;;;;;;5111526;28;20042;-51
2023/12/27 11:18:31;;;;;;;154.38;20.98;;;5.70;99.90;;;;;;5093021;28;20019;-51
2023/12/27 11:20:57;;;;;;;166.07;21.40;;;5.70;99.90;;;;;;5100508;28;20032;-50
2023/12/27 11:23:24;;;;;;;138.15;19.23;;;5.70;99.90;;;;;;5094741;28;20024;-51
2023/12/27 11:25:51;;;;;;;117.65;18.48;;;5.80;99.90;;;;;;5112860;28;20041;-51
2023/12/27 11:28:16;;;;;;;111.78;17.00;;;5.80;99.90;;;;;;5085461;28;20040;-51
2023/12/27 11:30:43;;;;;;;156.07;19.85;;;5.80;99.90;;;;;;5060512;28;20028;-51
2023/12/27 11:33:08;;;;;;;164.93;19.30;;;5.80;99.90;;;;;;5106376;28;20028;-51
2023/12/27 11:35:34;;;;;;;186.35;25.35;;;5.80;99.90;;;;;;5136048;27;20372;-51
2023/12/27 11:38:21;;;;;;;152.98;22.60;;;5.80;99.90;;;;;;5111591;28;20028;-51
2023/12/27 11:40:47;;;;;;;172.77;21.33;;;5.90;99.90;;;;;;5082832;28;20131;-51
2023/12/27 11:43:21;;;;;;;161.93;22.42;;;5.90;99.90;;;;;;5114665;28;20024;-51
2023/12/27 11:46:01;;;;;;;126.37;20.10;;;5.90;99.90;;;;;;5101820;28;20020;-50
2023/12/27 11:48:30;;;;;;;160.55;20.17;;;5.90;99.90;;;;;;5093568;28;20270;-51
2023/12/27 11:50:56;;;;;;;152.48;20.42;;;5.90;99.90;;;;;;5088602;28;20032;-51
2023/12/27 11:53:25;;;;;;;156.40;23.52;;;6.00;99.90;;;;;;5121491;28;20031;-51
2023/12/27 11:55:51;;;;;;;149.15;20.85;;;6.00;99.90;;;;;;5077606;28;20040;-50
2023/12/27 11:58:29;;;;;;;179.95;22.13;;;6.00;99.90;;;;;;5114308;27;20023;-50
2023/12/27 12:00:54;;;;;;;144.40;18.30;;;6.00;99.90;;;;;;5111179;28;20038;-51
2023/12/27 12:03:24;;;;;;;170.95;22.33;;;6.00;99.90;;;;;;5110561;28;20091;-51
2023/12/27 12:06:09;;;;;;;119.65;19.63;;;6.00;99.90;;;;;;5087042;28;20028;-51
2023/12/27 12:08:44;;;;;;;161.02;21.08;;;6.00;99.90;;;;;;5107555;28;20112;-51
2023/12/27 12:11:12;;;;;;;99.20;17.88;;;6.00;99.90;;;;;;5106317;28;20028;-51
2023/12/27 12:13:39;;;;;;;161.15;21.08;;;6.10;99.90;;;;;;5090749;28;20028;-49
2023/12/27 12:16:08;;;;;;;137.82;21.10;;;6.10;99.90;;;;;;5099855;28;20036;-51
2023/12/27 12:18:34;;;;;;;155.02;20.42;;;6.10;99.90;;;;;;5109765;28;20464;-50
2023/12/27 12:20:59;;;;;;;142.63;20.08;;;6.10;99.90;;;;;;5121337;28;20069;-51
2023/12/27 12:23:29;;;;;;;116.85;18.83;;;6.10;99.90;;;;;;5123449;28;20035;-51
2023/12/27 12:25:57;;;;;;;158.90;20.40;;;6.10;99.90;;;;;;5106055;28;20035;-51
2023/12/27 12:28:24;;;;;;;124.80;17.50;;;6.10;99.90;;;;;;5089515;28;20032;-51
2023/12/27 12:30:50;;;;;;;117.38;17.73;;;6.10;99.90;;;;;;5095447;28;20040;-50
2023/12/27 12:33:15;;;;;;;142.93;21.42;;;6.10;99.90;;;;;;5086731;28;20109;-50
2023/12/27 12:35:41;;;;;;;127.47;17.38;;;6.20;99.90;;;;;;5087638;28;20035;-50
2023/12/27 12:38:06;;;;;;;165.07;19.60;;;6.20;99.90;;;;;;5087811;28;20033;-51
2023/12/27 12:40:32;;;;;;;119.82;19.75;;;6.20;99.90;;;;;;5096365;28;20055;-51
2023/12/27 12:42:58;;;;;;;97.32;17.17;;;6.20;99.90;;;;;;5086589;28;20068;-51
2023/12/27 12:45:23;;;;;;;129.07;17.58;;;6.30;99.90;;;;;;5095888;28;20028;-51